createdAt,value
2022-10-02T00:02:18.567Z,97082.88
2022-10-02T00:05:05.234Z,97086.06
2022-10-02T00:08:04.034Z,97098.40
2022-10-02T00:10:47.572Z,97099.98
2022-10-02T00:13:39.338Z,97110.43
2022-10-02T00:16:23.843Z,97114.25
2022-10-02T00:18:55.873Z,97114.82
2022-10-02T00:21:40.388Z,97113.73
2022-10-02T00:24:15.078Z,97109.31
2022-10-02T00:26:48.019Z,97112.91
2022-10-02T00:29:16.253Z,97120.77
2022-10-02T00:31:56.338Z,97119.23
2022-10-02T00:34:39.397Z,97115.61
2022-10-02T00:37:21.114Z,97110.14
2022-10-02T00:39:55.188Z,97110.72
2022-10-02T00:42:47.576Z,97109.03
2022-10-02T00:45:15.635Z,97110.20
2022-10-02T00:48:17.728Z,97115.45
2022-10-02T00:51:23.432Z,97124.83
2022-10-02T00:54:19.927Z,97127.66
2022-10-02T00:57:03.087Z,97129.76
2022-10-02T00:59:44.961Z,97134.41
2022-10-02T01:02:31.079Z,97137.97
2022-10-02T01:05:02.619Z,97140.77
2022-10-02T01:07:31.084Z,97136.27
2022-10-02T01:09:59.418Z,97134.70
2022-10-02T01:12:27.471Z,97134.39
2022-10-02T01:14:55.482Z,97129.77
2022-10-02T01:17:33.304Z,97130.41
2022-10-02T01:20:06.092Z,97130.02
2022-10-02T01:22:46.148Z,97120.97
2022-10-02T01:25:14.332Z,97122.45
2022-10-02T01:27:43.242Z,97116.92
2022-10-02T01:30:19.876Z,97116.11
2022-10-02T01:32:55.581Z,97124.19
2022-10-02T01:35:31.777Z,97118.61
2022-10-02T01:38:08.069Z,97114.16
2022-10-02T01:40:41.088Z,97113.34
2022-10-02T01:43:17.774Z,97107.80
2022-10-02T01:46:01.892Z,97106.15
2022-10-02T01:48:38.475Z,97100.73
2022-10-02T01:51:30.913Z,97092.98
2022-10-02T01:54:35.748Z,97083.87
2022-10-02T01:57:06.575Z,97076.14
2022-10-02T02:00:11.478Z,97084.30
2022-10-02T02:02:51.492Z,97078.40
2022-10-02T02:05:44.028Z,97077.88
2022-10-02T02:08:49.380Z,97084.95
2022-10-02T02:11:21.117Z,97084.66
2022-10-02T02:14:17.729Z,97090.30
2022-10-02T02:16:50.261Z,97094.00
2022-10-02T02:19:43.089Z,97098.29
2022-10-02T02:22:16.259Z,97098.40
2022-10-02T02:25:08.994Z,97100.12
2022-10-02T02:27:41.776Z,97105.23
2022-10-02T02:30:12.825Z,97112.23
2022-10-02T02:32:47.208Z,97110.02
2022-10-02T02:35:22.486Z,97103.11
2022-10-02T02:37:55.594Z,97104.05
2022-10-02T02:40:31.329Z,97107.61
2022-10-02T02:43:10.367Z,97111.94
2022-10-02T02:46:02.602Z,97113.52
2022-10-02T02:48:43.051Z,97118.38
2022-10-02T02:51:17.300Z,97125.52
2022-10-02T02:53:57.192Z,97127.29
2022-10-02T02:56:28.582Z,97130.62
2022-10-02T02:59:06.342Z,97136.38
2022-10-02T03:01:34.542Z,97137.54
2022-10-02T03:04:03.450Z,97139.24
2022-10-02T03:06:45.315Z,97145.27
2022-10-02T03:09:19.231Z,97156.28
2022-10-02T03:11:47.351Z,97157.69
2022-10-02T03:14:57.406Z,97159.98
2022-10-02T03:17:43.399Z,97177.68
2022-10-02T03:20:14.367Z,97187.61
2022-10-02T03:22:51.517Z,97178.64
2022-10-02T03:25:32.179Z,97184.62
2022-10-02T03:28:43.597Z,97193.95
2022-10-02T03:31:12.026Z,97192.27
2022-10-02T03:33:41.193Z,97196.09
2022-10-02T03:36:12.804Z,97205.33
2022-10-02T03:38:42.911Z,97211.66
2022-10-02T03:41:11.654Z,97214.15
2022-10-02T03:43:39.885Z,97224.40
2022-10-02T03:46:07.893Z,97227.44
2022-10-02T03:48:38.774Z,97236.70
2022-10-02T03:51:06.786Z,97241.34
2022-10-02T03:53:35.643Z,97250.30
2022-10-02T03:56:22.070Z,97252.31
2022-10-02T03:58:54.195Z,97251.35
2022-10-02T04:01:30.002Z,97259.38
2022-10-02T04:04:07.067Z,97260.98
2022-10-02T04:06:35.289Z,97262.13
2022-10-02T04:09:11.074Z,97269.92
2022-10-02T04:11:44.308Z,97272.08
2022-10-02T04:14:30.038Z,97271.06
2022-10-02T04:17:08.585Z,97269.48
2022-10-02T04:19:43.907Z,97270.86
2022-10-02T04:22:18.030Z,97273.68
2022-10-02T04:24:52.725Z,97282.38
2022-10-02T04:27:43.966Z,97280.05
2022-10-02T04:30:17.290Z,97290.27
2022-10-02T04:32:46.315Z,97291.17
2022-10-02T04:35:33.567Z,97288.56
2022-10-02T04:38:23.245Z,97291.23
2022-10-02T04:41:46.338Z,97292.37
2022-10-02T04:44:31.864Z,97290.34
2022-10-02T04:47:21.434Z,97295.66
2022-10-02T04:50:20.275Z,97296.55
2022-10-02T04:53:12.653Z,97297.14
2022-10-02T04:56:08.610Z,97301.27
2022-10-02T04:58:42.501Z,97302.75
2022-10-02T05:01:25.010Z,97305.36
2022-10-02T05:04:24.033Z,97313.86
2022-10-02T05:07:13.179Z,97326.03
2022-10-02T05:09:52.651Z,97327.91
2022-10-02T05:12:59.024Z,97333.64
2022-10-02T05:15:45.024Z,97343.43
2022-10-02T05:18:45.112Z,97347.73
2022-10-02T05:21:41.004Z,97348.13
2022-10-02T05:24:30.378Z,97352.75
2022-10-02T05:27:30.828Z,97359.84
2022-10-02T05:30:16.267Z,97360.05
2022-10-02T05:33:22.726Z,97360.02
2022-10-02T05:36:25.982Z,97363.21
2022-10-02T05:39:02.099Z,97365.45
2022-10-02T05:41:49.663Z,97365.22
2022-10-02T05:44:30.986Z,97362.63
2022-10-02T05:47:19.207Z,97363.17
2022-10-02T05:49:56.028Z,97368.23
2022-10-02T05:52:45.966Z,97364.34
2022-10-02T05:55:19.620Z,97367.30
2022-10-02T05:58:12.680Z,97369.08
2022-10-02T06:01:03.207Z,97373.70
2022-10-02T06:03:34.257Z,97370.79
2022-10-02T06:06:16.916Z,97375.29
2022-10-02T06:09:17.731Z,97376.42
2022-10-02T06:11:52.804Z,97372.38
2022-10-02T06:14:30.904Z,97373.27
2022-10-02T06:17:24.401Z,97372.91
2022-10-02T06:20:03.565Z,97373.36
2022-10-02T06:22:43.176Z,97368.29
2022-10-02T06:25:23.534Z,97368.33
2022-10-02T06:28:03.905Z,97367.92
2022-10-02T06:30:37.403Z,97379.25
2022-10-02T06:33:11.359Z,97385.70
2022-10-02T06:36:00.729Z,97387.42
2022-10-02T06:38:31.995Z,97397.29
2022-10-02T06:41:02.911Z,97405.17
2022-10-02T06:44:09.927Z,97403.70
2022-10-02T06:47:02.260Z,97406.48
2022-10-02T06:49:39.719Z,97401.85
2022-10-02T06:52:39.914Z,97409.59
2022-10-02T06:55:26.602Z,97413.50
2022-10-02T06:58:10.698Z,97411.58
2022-10-02T07:00:56.219Z,97417.41
2022-10-02T07:03:27.405Z,97413.02
2022-10-02T07:06:34.583Z,97416.23
2022-10-02T07:09:30.648Z,97427.16
2022-10-02T07:12:22.279Z,97429.46
2022-10-02T07:15:18.378Z,97431.56
2022-10-02T07:18:05.317Z,97435.77
2022-10-02T07:20:42.229Z,97437.08
2022-10-02T07:23:21.553Z,97435.54
2022-10-02T07:26:12.795Z,97436.77
2022-10-02T07:28:52.610Z,97442.98
2022-10-02T07:31:40.614Z,97438.09
2022-10-02T07:34:43.483Z,97442.10
2022-10-02T07:37:42.317Z,97437.60
2022-10-02T07:40:42.609Z,97443.65
2022-10-02T07:43:45.256Z,97446.02
2022-10-02T07:46:42.438Z,97447.65
2022-10-02T07:49:21.614Z,97448.27
2022-10-02T07:52:16.337Z,97453.59
2022-10-02T07:55:21.635Z,97457.13
2022-10-02T07:58:14.041Z,97460.35
2022-10-02T08:00:59.707Z,97463.05
2022-10-02T08:03:29.856Z,97464.34
2022-10-02T08:06:00.705Z,97465.92
2022-10-02T08:08:44.072Z,97466.70
2022-10-02T08:11:18.960Z,97467.38
2022-10-02T08:14:12.927Z,97477.58
2022-10-02T08:16:49.521Z,97479.23
2022-10-02T08:19:24.911Z,97488.23
2022-10-02T08:22:00.837Z,97493.71
2022-10-02T08:24:46.940Z,97496.45
2022-10-02T08:27:21.500Z,97495.40
2022-10-02T08:29:57.655Z,97497.01
2022-10-02T08:32:34.737Z,97490.64
2022-10-02T08:35:14.563Z,97492.58
2022-10-02T08:38:01.340Z,97492.59
2022-10-02T08:40:43.504Z,97494.92
2022-10-02T08:43:30.508Z,97494.22
2022-10-02T08:46:29.201Z,97494.83
2022-10-02T08:49:19.692Z,97494.20
2022-10-02T08:52:10.163Z,97494.46
2022-10-02T08:55:22.629Z,97497.69
2022-10-02T08:58:19.273Z,97502.95
2022-10-02T09:01:33.222Z,97506.42
2022-10-02T09:04:20.688Z,97499.32
2022-10-02T09:07:34.021Z,97497.67
2022-10-02T09:10:20.956Z,97495.56
2022-10-02T09:13:26.639Z,97495.45
2022-10-02T09:16:17.665Z,97493.43
2022-10-02T09:19:03.856Z,97488.76
2022-10-02T09:21:50.432Z,97483.83
2022-10-02T09:24:46.845Z,97484.08
2022-10-02T09:27:21.100Z,97483.73
2022-10-02T09:30:14.489Z,97482.81
2022-10-02T09:33:01.309Z,97482.98
2022-10-02T09:35:44.881Z,97479.27
2022-10-02T09:38:21.349Z,97478.08
2022-10-02T09:41:20.597Z,97478.11
2022-10-02T09:44:10.494Z,97478.59
2022-10-02T09:46:55.721Z,97472.60
2022-10-02T09:50:00.757Z,97466.79
2022-10-02T09:52:47.458Z,97462.16
2022-10-02T09:55:50.246Z,97459.45
2022-10-02T09:58:27.560Z,97460.91
2022-10-02T10:01:23.417Z,97452.30
2022-10-02T10:04:13.018Z,97456.30
2022-10-02T10:06:43.979Z,97465.65
2022-10-02T10:09:47.573Z,97472.45
2022-10-02T10:12:57.761Z,97475.45
2022-10-02T10:15:34.836Z,97468.33
2022-10-02T10:18:23.568Z,97476.04
2022-10-02T10:21:20.853Z,97474.51
2022-10-02T10:24:26.306Z,97469.63
2022-10-02T10:27:09.875Z,97468.69
2022-10-02T10:30:07.211Z,97465.87
2022-10-02T10:33:12.796Z,97471.06
2022-10-02T10:35:56.305Z,97467.14
2022-10-02T10:39:00.839Z,97466.40
2022-10-02T10:41:53.486Z,97455.52
2022-10-02T10:44:51.399Z,97449.95
2022-10-02T10:47:43.995Z,97453.09
2022-10-02T10:50:24.545Z,97452.05
2022-10-02T10:53:14.230Z,97451.80
2022-10-02T10:56:30.169Z,97456.30
2022-10-02T10:59:18.247Z,97454.21
2022-10-02T11:02:25.968Z,97452.39
2022-10-02T11:05:24.845Z,97450.63
2022-10-02T11:08:06.388Z,97448.27
2022-10-02T11:11:10.164Z,97445.60
2022-10-02T11:14:00.059Z,97444.05
2022-10-02T11:17:02.332Z,97441.88
2022-10-02T11:19:43.262Z,97444.41
2022-10-02T11:22:29.855Z,97439.54
2022-10-02T11:25:34.438Z,97435.87
2022-10-02T11:28:22.030Z,97429.84
2022-10-02T11:31:17.661Z,97430.70
2022-10-02T11:34:05.489Z,97427.08
2022-10-02T11:36:46.979Z,97428.87
2022-10-02T11:39:53.945Z,97429.66
2022-10-02T11:42:42.289Z,97428.42
2022-10-02T11:45:37.371Z,97423.53
2022-10-02T11:48:26.536Z,97423.84
2022-10-02T11:51:11.752Z,97420.50
2022-10-02T11:54:12.059Z,97419.54
2022-10-02T11:57:02.167Z,97413.86
2022-10-02T11:59:52.131Z,97408.60
2022-10-02T12:02:26.516Z,97415.41
2022-10-02T12:05:08.710Z,97414.38
2022-10-02T12:07:55.825Z,97409.27
2022-10-02T12:10:32.065Z,97411.59
2022-10-02T12:13:06.266Z,97413.39
2022-10-02T12:15:50.069Z,97413.23
2022-10-02T12:18:27.123Z,97407.83
2022-10-02T12:21:37.088Z,97408.96
2022-10-02T12:24:38.665Z,97407.07
2022-10-02T12:27:16.042Z,97406.33
2022-10-02T12:30:04.318Z,97400.52
2022-10-02T12:32:37.733Z,97404.85
2022-10-02T12:35:08.955Z,97399.39
2022-10-02T12:37:52.647Z,97402.91
2022-10-02T12:40:41.974Z,97395.96
2022-10-02T12:43:31.904Z,97389.83
2022-10-02T12:46:21.794Z,97382.17
2022-10-02T12:49:04.001Z,97381.90
2022-10-02T12:51:47.564Z,97379.51
2022-10-02T12:54:50.615Z,97378.11
2022-10-02T12:57:56.282Z,97380.89
2022-10-02T13:00:32.946Z,97369.92
2022-10-02T13:03:02.176Z,97361.02
2022-10-02T13:05:43.526Z,97363.79
2022-10-02T13:08:24.191Z,97359.78
2022-10-02T13:11:13.872Z,97354.55
2022-10-02T13:14:01.832Z,97362.17
2022-10-02T13:16:36.465Z,97359.16
2022-10-02T13:19:17.901Z,97359.55
2022-10-02T13:21:59.568Z,97357.66
2022-10-02T13:24:51.858Z,97356.21
2022-10-02T13:27:49.943Z,97361.30
2022-10-02T13:30:21.101Z,97360.61
2022-10-02T13:33:10.361Z,97355.64
2022-10-02T13:35:45.988Z,97352.86
2022-10-02T13:38:20.324Z,97352.02
2022-10-02T13:41:06.685Z,97353.27
2022-10-02T13:43:49.306Z,97358.93
2022-10-02T13:46:52.035Z,97349.83
2022-10-02T13:49:40.942Z,97342.54
2022-10-02T13:52:31.355Z,97345.52
2022-10-02T13:55:26.189Z,97345.91
2022-10-02T13:58:06.265Z,97347.04
2022-10-02T14:00:37.576Z,97345.56
2022-10-02T14:03:06.025Z,97346.09
2022-10-02T14:06:03.419Z,97345.44
2022-10-02T14:08:58.115Z,97344.00
2022-10-02T14:11:51.177Z,97339.24
2022-10-02T14:14:27.337Z,97340.45
2022-10-02T14:17:35.997Z,97350.70
2022-10-02T14:20:16.492Z,97347.42
2022-10-02T14:22:48.078Z,97342.95
2022-10-02T14:25:43.082Z,97345.27
2022-10-02T14:28:14.267Z,97346.41
2022-10-02T14:31:08.093Z,97341.11
2022-10-02T14:34:13.993Z,97340.84
2022-10-02T14:37:16.849Z,97342.77
2022-10-02T14:39:45.930Z,97337.46
2022-10-02T14:42:38.679Z,97335.27
2022-10-02T14:45:25.313Z,97330.45
2022-10-02T14:48:36.098Z,97329.27
2022-10-02T14:51:17.659Z,97316.70
2022-10-02T14:54:04.295Z,97325.66
2022-10-02T14:56:44.580Z,97318.55
2022-10-02T14:59:51.202Z,97319.16
2022-10-02T15:02:28.308Z,97331.95
2022-10-02T15:05:07.700Z,97336.77
2022-10-02T15:07:39.458Z,97338.55
2022-10-02T15:10:22.565Z,97341.70
2022-10-02T15:13:13.730Z,97346.16
2022-10-02T15:16:11.121Z,97343.36
2022-10-02T15:18:58.306Z,97337.66
2022-10-02T15:21:44.393Z,97331.37
2022-10-02T15:24:30.121Z,97337.21
2022-10-02T15:27:16.759Z,97343.02
2022-10-02T15:30:23.272Z,97346.54
2022-10-02T15:33:10.948Z,97349.59
2022-10-02T15:35:57.361Z,97355.50
2022-10-02T15:38:32.180Z,97359.89
2022-10-02T15:41:13.030Z,97362.14
2022-10-02T15:44:08.364Z,97361.64
2022-10-02T15:47:02.077Z,97365.44
2022-10-02T15:50:08.515Z,97357.30
2022-10-02T15:53:03.625Z,97366.65
2022-10-02T15:55:45.988Z,97370.21
2022-10-02T15:58:24.666Z,97365.96
2022-10-02T16:01:01.831Z,97367.02
2022-10-02T16:03:53.208Z,97368.66
2022-10-02T16:06:44.291Z,97369.52
2022-10-02T16:09:29.623Z,97368.84
2022-10-02T16:12:18.151Z,97370.09
2022-10-02T16:15:03.465Z,97374.27
2022-10-02T16:17:46.866Z,97376.22
2022-10-02T16:20:29.648Z,97372.25
2022-10-02T16:23:10.783Z,97376.52
2022-10-02T16:26:03.561Z,97378.45
2022-10-02T16:28:41.072Z,97376.58
2022-10-02T16:31:39.257Z,97373.84
2022-10-02T16:34:16.203Z,97373.32
2022-10-02T16:36:50.811Z,97372.17
2022-10-02T16:39:51.641Z,97376.03
2022-10-02T16:42:32.232Z,97379.36
2022-10-02T16:45:18.878Z,97383.35
2022-10-02T16:47:50.110Z,97381.66
2022-10-02T16:50:26.450Z,97384.20
2022-10-02T16:53:04.104Z,97390.27
2022-10-02T16:55:41.270Z,97390.39
2022-10-02T16:58:33.039Z,97387.51
2022-10-02T17:01:07.760Z,97391.94
2022-10-02T17:03:38.936Z,97391.67
2022-10-02T17:06:18.283Z,97390.98
2022-10-02T17:08:54.132Z,97400.70
2022-10-02T17:11:31.425Z,97398.70
2022-10-02T17:14:22.137Z,97401.77
2022-10-02T17:16:59.993Z,97407.58
2022-10-02T17:19:30.310Z,97404.46
2022-10-02T17:22:04.142Z,97398.70
2022-10-02T17:24:54.495Z,97402.77
2022-10-02T17:27:54.741Z,97403.80
2022-10-02T17:30:27.310Z,97399.42
2022-10-02T17:33:08.156Z,97401.00
2022-10-02T17:35:48.465Z,97402.02
2022-10-02T17:38:25.174Z,97409.23
2022-10-02T17:41:31.909Z,97410.14
2022-10-02T17:44:05.062Z,97406.37
2022-10-02T17:46:56.151Z,97405.54
2022-10-02T17:49:33.009Z,97408.25
2022-10-02T17:52:32.000Z,97406.06
2022-10-02T17:55:47.847Z,97412.59
2022-10-02T17:58:29.896Z,97413.31
2022-10-02T18:01:22.276Z,97415.20
2022-10-02T18:04:00.281Z,97413.95
2022-10-02T18:06:39.779Z,97413.91
2022-10-02T18:09:40.353Z,97412.79
2022-10-02T18:12:56.349Z,97414.21
2022-10-02T18:15:49.962Z,97411.02
2022-10-02T18:18:38.504Z,97410.68
2022-10-02T18:21:17.786Z,97409.86
2022-10-02T18:24:00.676Z,97411.32
2022-10-02T18:26:46.822Z,97413.30
2022-10-02T18:29:52.029Z,97415.67
2022-10-02T18:32:36.248Z,97414.96
2022-10-02T18:35:07.841Z,97416.16
2022-10-02T18:38:01.844Z,97416.26
2022-10-02T18:40:48.696Z,97413.39
2022-10-02T18:43:28.642Z,97418.70
2022-10-02T18:46:19.204Z,97419.59
2022-10-02T18:49:25.937Z,97420.77
2022-10-02T18:52:05.399Z,97417.71
2022-10-02T18:55:10.534Z,97416.62
2022-10-02T18:58:09.509Z,97415.23
2022-10-02T19:00:56.079Z,97412.85
2022-10-02T19:03:46.795Z,97413.46
2022-10-02T19:06:19.634Z,97409.59
2022-10-02T19:09:11.365Z,97410.77
2022-10-02T19:11:50.244Z,97414.96
2022-10-02T19:14:25.954Z,97412.89
2022-10-02T19:17:03.727Z,97413.79
2022-10-02T19:19:33.080Z,97413.11
2022-10-02T19:22:09.905Z,97413.31
2022-10-02T19:24:41.039Z,97410.19
2022-10-02T19:27:18.559Z,97407.96
2022-10-02T19:29:58.893Z,97411.95
2022-10-02T19:32:43.440Z,97414.33
2022-10-02T19:35:18.585Z,97415.61
2022-10-02T19:37:50.234Z,97415.10
2022-10-02T19:40:23.985Z,97408.61
2022-10-02T19:43:06.531Z,97405.96
2022-10-02T19:45:41.240Z,97401.94
2022-10-02T19:48:11.412Z,97398.61
2022-10-02T19:50:52.920Z,97397.23
2022-10-02T19:53:41.044Z,97397.45
2022-10-02T19:56:15.980Z,97391.26
2022-10-02T19:58:50.474Z,97392.07
2022-10-02T20:01:21.586Z,97387.98
2022-10-02T20:03:56.529Z,97385.50
2022-10-02T20:06:28.132Z,97388.93
2022-10-02T20:09:15.170Z,97391.35
2022-10-02T20:11:54.592Z,97388.52
2022-10-02T20:14:30.264Z,97400.52
2022-10-02T20:17:12.896Z,97409.37
2022-10-02T20:19:51.027Z,97403.93
2022-10-02T20:22:25.047Z,97403.77
2022-10-02T20:25:02.492Z,97407.98
2022-10-02T20:27:41.466Z,97412.92
2022-10-02T20:30:17.217Z,97413.66
2022-10-02T20:33:14.445Z,97413.52
2022-10-02T20:36:01.844Z,97409.19
2022-10-02T20:38:36.114Z,97407.81
2022-10-02T20:41:13.179Z,97408.57
2022-10-02T20:43:46.684Z,97406.73
2022-10-02T20:46:26.940Z,97406.46
2022-10-02T20:49:08.810Z,97407.61
2022-10-02T20:51:52.262Z,97405.98
2022-10-02T20:55:08.603Z,97402.45
2022-10-02T20:58:08.291Z,97396.20
2022-10-02T21:00:59.368Z,97398.50
2022-10-02T21:03:59.656Z,97404.77
2022-10-02T21:06:30.632Z,97403.85
2022-10-02T21:09:33.467Z,97400.30
2022-10-02T21:12:36.769Z,97401.45
2022-10-02T21:15:08.871Z,97398.74
2022-10-02T21:18:08.311Z,97397.19
2022-10-02T21:20:58.449Z,97400.02
2022-10-02T21:23:54.702Z,97398.11
2022-10-02T21:26:39.777Z,97393.05
2022-10-02T21:29:15.518Z,97391.51
2022-10-02T21:32:23.227Z,97393.81
2022-10-02T21:35:08.597Z,97401.55
2022-10-02T21:38:08.733Z,97398.84
2022-10-02T21:40:58.249Z,97398.79
2022-10-02T21:43:44.630Z,97401.36
2022-10-02T21:46:34.350Z,97401.47
2022-10-02T21:49:24.146Z,97398.24
2022-10-02T21:52:02.421Z,97398.82
2022-10-02T21:54:36.422Z,97398.55
2022-10-02T21:57:38.704Z,97398.89
2022-10-02T22:00:11.326Z,97397.98
2022-10-02T22:02:59.370Z,97391.79
2022-10-02T22:05:56.243Z,97391.31
2022-10-02T22:08:39.457Z,97391.50
2022-10-02T22:11:36.685Z,97387.28
2022-10-02T22:14:15.080Z,97382.75
2022-10-02T22:16:49.629Z,97375.98
2022-10-02T22:19:48.372Z,97372.23
2022-10-02T22:22:38.178Z,97368.86
2022-10-02T22:25:16.619Z,97364.82
2022-10-02T22:28:03.186Z,97363.64
2022-10-02T22:30:50.013Z,97354.48
2022-10-02T22:33:55.668Z,97349.91
2022-10-02T22:36:58.980Z,97352.66
2022-10-02T22:39:33.887Z,97352.30
2022-10-02T22:42:29.658Z,97351.18
2022-10-02T22:45:01.044Z,97348.34
2022-10-02T22:47:47.263Z,97348.62
2022-10-02T22:50:27.838Z,97347.46
2022-10-02T22:53:04.926Z,97344.55
2022-10-02T22:55:46.216Z,97341.78
2022-10-02T22:58:31.477Z,97342.29
2022-10-02T23:01:14.455Z,97338.44
2022-10-02T23:03:54.254Z,97331.60
2022-10-02T23:06:25.423Z,97328.13
2022-10-02T23:09:13.782Z,97323.96
2022-10-02T23:11:47.453Z,97317.02
2022-10-02T23:14:28.497Z,97318.97
2022-10-02T23:17:15.106Z,97315.86
2022-10-02T23:20:12.257Z,97315.42
2022-10-02T23:22:51.695Z,97310.45
2022-10-02T23:25:25.055Z,97307.61
2022-10-02T23:28:02.229Z,97311.71
2022-10-02T23:30:35.595Z,97316.84
2022-10-02T23:33:26.155Z,97323.52
2022-10-02T23:36:13.956Z,97324.11
2022-10-02T23:38:42.030Z,97326.58
2022-10-02T23:41:36.976Z,97317.91
2022-10-02T23:44:20.742Z,97310.26
2022-10-02T23:46:49.065Z,97305.04
2022-10-02T23:49:19.247Z,97302.05
2022-10-02T23:51:55.323Z,97297.70
2022-10-02T23:54:58.680Z,97290.55
2022-10-02T23:57:38.941Z,97289.70
